Time;durP1;ratioP1;P1;durP2;ratioP2;P2;SDS_P1;SDS_P2;PMS_P1;PMS_P2;Temp;Humidity;BMP_temperature;BMP_pressure;BME280_temperature;BME280_humidity;BME280_pressure;Samples;Min_cycle;Max_cycle;Signal;HPM_P1;HPM_P2
2022/12/04 00:02:22;;;;;;;27.65;10.90;;;;;;;3.40;100.00;98854.28;5056015;28;20492;-82
2022/12/04 00:04:47;;;;;;;26.08;12.07;;;;;;;3.43;100.00;98864.81;5039799;28;20036;-82
2022/12/04 00:07:13;;;;;;;31.00;11.55;;;;;;;3.43;100.00;98864.81;5039900;28;20032;-83
2022/12/04 00:09:39;;;;;;;31.05;12.15;;;;;;;3.43;100.00;98856.88;5039459;28;20031;-83
2022/12/04 00:12:05;;;;;;;26.92;12.40;;;;;;;3.42;100.00;98856.88;5056335;28;20044;-83
2022/12/04 00:14:30;;;;;;;23.60;11.48;;;;;;;3.49;100.00;98859.44;5062520;28;20059;-83
2022/12/04 00:16:56;;;;;;;34.90;13.93;;;;;;;3.42;100.00;98855.13;5059629;28;20028;-83
2022/12/04 00:19:21;;;;;;;34.05;14.77;;;;;;;3.30;100.00;98839.41;5059183;28;20036;-82
2022/12/04 00:21:49;;;;;;;32.83;14.07;;;;;;;3.24;100.00;98847.41;5076426;28;20028;-82
2022/12/04 00:24:14;;;;;;;43.30;14.85;;;;;;;3.26;100.00;98861.53;5059212;28;20085;-83
2022/12/04 00:26:40;;;;;;;33.72;14.55;;;;;;;3.29;100.00;98862.34;5059348;28;20039;-82
2022/12/04 00:29:05;;;;;;;30.80;13.35;;;;;;;3.39;100.00;98872.78;5059797;28;20027;-82
2022/12/04 00:31:31;;;;;;;38.53;13.85;;;;;;;3.46;100.00;98879.78;5076800;28;20035;-83
2022/12/04 00:33:57;;;;;;;31.98;13.07;;;;;;;3.41;100.00;98877.19;5076040;28;20024;-83
2022/12/04 00:36:27;;;;;;;32.65;12.80;;;;;;;3.46;100.00;98880.66;5076008;28;20077;-82
2022/12/04 00:38:53;;;;;;;29.85;12.65;;;;;;;3.56;100.00;98873.47;5054762;28;20101;-82
2022/12/04 00:41:22;;;;;;;27.92;12.07;;;;;;;3.46;100.00;98858.59;5059350;28;20032;-82
2022/12/04 00:43:47;;;;;;;26.50;10.98;;;;;;;3.63;100.00;98891.03;5059693;28;20035;-82
2022/12/04 00:46:14;;;;;;;30.60;10.98;;;;;;;3.41;100.00;98871.91;5059035;28;20024;-83
2022/12/04 00:48:40;;;;;;;25.33;11.32;;;;;;;3.44;100.00;98871.88;5059067;28;20035;-82
2022/12/04 00:51:08;;;;;;;27.25;10.88;;;;;;;3.41;100.00;98871.03;5059707;28;20403;-82
2022/12/04 00:53:38;;;;;;;25.25;10.27;;;;;;;3.23;100.00;98850.97;5051304;28;20028;-82
2022/12/04 00:56:05;;;;;;;25.13;10.70;;;;;;;3.25;100.00;98859.75;5059799;28;20031;-83
2022/12/04 00:58:31;;;;;;;29.58;11.18;;;;;;;3.38;100.00;98879.88;5075912;28;20032;-81
2022/12/04 01:01:02;;;;;;;28.05;10.82;;;;;;;3.34;100.00;98870.22;5059479;28;20039;-82
2022/12/04 01:03:27;;;;;;;24.10;10.10;;;;;;;3.37;100.00;98879.88;5059262;28;20039;-81
2022/12/04 01:05:53;;;;;;;23.38;9.60;;;;;;;3.36;100.00;98875.47;5075037;28;20027;-81
2022/12/04 01:08:19;;;;;;;21.40;8.57;;;;;;;3.37;100.00;98875.47;5075162;28;20020;-82
2022/12/04 01:10:44;;;;;;;22.90;8.18;;;;;;;3.19;100.00;98868.66;5058510;28;20087;-83
2022/12/04 01:13:10;;;;;;;26.80;8.88;;;;;;;3.18;100.00;98863.34;5092524;28;20114;-82
2022/12/04 01:15:40;;;;;;;23.80;9.00;;;;;;;3.13;100.00;98876.66;5069486;28;20040;-82
2022/12/04 01:18:06;;;;;;;23.20;9.32;;;;;;;3.06;100.00;98879.34;5069909;28;20518;-81
2022/12/04 01:20:31;;;;;;;26.80;9.45;;;;;;;3.12;100.00;98882.81;5058892;28;20195;-81
2022/12/04 01:22:57;;;;;;;23.30;9.25;;;;;;;3.00;100.00;98876.78;5058108;28;20056;-81
2022/12/04 01:25:22;;;;;;;28.08;9.50;;;;;;;2.90;100.00;98878.63;5092356;28;20085;-82
2022/12/04 01:27:48;;;;;;;22.98;8.70;;;;;;;2.95;100.00;98890.06;5058328;28;20028;-82
2022/12/04 01:30:14;;;;;;;25.27;8.93;;;;;;;2.90;100.00;98880.41;5091819;28;20067;-82
2022/12/04 01:32:39;;;;;;;25.58;8.68;;;;;;;2.98;100.00;98897.06;5058202;28;20100;-81
2022/12/04 01:35:05;;;;;;;25.60;9.13;;;;;;;3.06;100.00;98900.50;5058262;28;20442;-82
2022/12/04 01:37:31;;;;;;;29.25;9.00;;;;;;;3.02;100.00;98896.13;5057931;28;20034;-83
2022/12/04 01:39:57;;;;;;;25.73;9.70;;;;;;;3.04;100.00;98902.28;5058467;28;20411;-83
2022/12/04 01:42:23;;;;;;;26.25;9.63;;;;;;;2.97;100.00;98888.25;5058694;28;20419;-83
2022/12/04 01:45:26;;;;;;;23.17;8.68;;;;;;;3.06;100.00;98901.38;5058398;28;20038;-82
2022/12/04 01:47:59;;;;;;;24.25;9.13;;;;;;;3.09;100.00;98905.75;5072907;28;20051;-82
2022/12/04 01:50:24;;;;;;;25.45;8.43;;;;;;;3.02;100.00;98890.84;5075488;28;20174;-83
2022/12/04 01:52:52;;;;;;;19.90;8.38;;;;;;;2.99;100.00;98885.59;5058637;28;20061;-82
2022/12/04 01:55:18;;;;;;;25.63;8.45;;;;;;;3.08;100.00;98880.19;5074930;28;20099;-82
2022/12/04 01:57:45;;;;;;;23.42;8.80;;;;;;;2.99;100.00;98891.75;5057556;28;20112;-83
2022/12/04 02:00:43;;;;;;;27.30;9.20;;;;;;;2.84;100.00;98872.53;5074919;28;20032;-84
2022/12/04 02:03:19;;;;;;;23.10;8.65;;;;;;;2.91;100.00;98846.06;5091355;28;20373;-82
2022/12/04 02:05:46;;;;;;;26.67;8.10;;;;;;;2.66;100.00;98821.66;5057084;28;20068;-83
2022/12/04 02:08:11;;;;;;;23.67;8.63;;;;;;;2.91;100.00;98864.53;5074972;28;20056;-81
2022/12/04 02:10:47;;;;;;;19.48;8.18;;;;;;;2.96;100.00;98881.22;5092357;28;20055;-81
2022/12/04 02:16:48;;;;;;;26.52;8.23;;;;;;;2.95;100.00;98878.59;5090288;28;20050;-82
2022/12/04 02:19:40;;;;;;;27.10;8.43;;;;;;;3.02;100.00;98877.63;5075119;28;20035;-83
2022/12/04 02:22:20;;;;;;;20.70;8.32;;;;;;;3.06;100.00;98880.22;5089712;28;20444;-82
2022/12/04 02:25:10;;;;;;;23.25;8.45;;;;;;;2.94;100.00;98861.00;5057850;28;20032;-82
2022/12/04 02:27:39;;;;;;;27.98;8.13;;;;;;;3.02;100.00;98873.22;5071090;28;20028;-82
2022/12/04 02:30:13;;;;;;;27.85;8.60;;;;;;;3.00;100.00;98858.28;5073772;28;20020;-80
2022/12/04 02:32:39;;;;;;;19.50;8.23;;;;;;;2.96;100.00;98869.75;5058216;28;20031;-82
2022/12/04 02:35:14;;;;;;;24.13;8.25;;;;;;;2.97;100.00;98879.47;5074469;28;20028;-81
2022/12/04 02:37:45;;;;;;;22.25;7.65;;;;;;;3.04;100.00;98887.31;5054776;28;20028;-81
2022/12/04 02:40:30;;;;;;;27.00;7.43;;;;;;;3.03;100.00;98880.28;5057283;28;20021;-81
2022/12/04 02:43:13;;;;;;;26.55;8.70;;;;;;;2.91;100.00;98866.31;5057393;28;20107;-82
2022/12/04 02:45:44;;;;;;;22.10;8.43;;;;;;;2.84;100.00;98862.84;5089281;28;20395;-82
2022/12/04 02:48:10;;;;;;;22.35;8.65;;;;;;;2.91;100.00;98879.53;5057742;28;20024;-81
2022/12/04 02:50:39;;;;;;;20.45;8.45;;;;;;;2.92;100.00;98874.25;5069485;28;20020;-82
2022/12/04 02:53:11;;;;;;;23.48;7.97;;;;;;;3.04;100.00;98881.16;5090889;28;20507;-82
2022/12/04 02:55:44;;;;;;;20.00;7.72;;;;;;;2.95;100.00;98873.31;5053401;28;20040;-81
2022/12/04 02:58:16;;;;;;;28.02;8.07;;;;;;;2.92;100.00;98876.88;5057976;28;20479;-82
2022/12/04 03:00:42;;;;;;;;;;;;;;;3.04;100.00;98881.16;5057809;28;20119;-82
2022/12/04 03:03:22;;;;;;;21.45;7.93;;;;;;;2.95;100.00;98870.69;5092517;28;19911;-82
2022/12/04 03:06:17;;;;;;;20.02;8.05;;;;;;;3.05;100.00;98889.03;5057643;28;20031;-82
2022/12/04 03:08:50;;;;;;;22.58;8.25;;;;;;;3.08;100.00;98872.28;5069004;28;20036;-82
2022/12/04 03:11:16;;;;;;;25.90;8.43;;;;;;;2.97;100.00;98864.47;5052798;28;20110;-76
2022/12/04 03:14:09;;;;;;;20.05;7.53;;;;;;;2.94;100.00;98868.91;5052313;28;20066;-77
2022/12/04 03:16:38;;;;;;;23.05;8.38;;;;;;;2.85;100.00;98864.59;5069343;28;20071;-76
2022/12/04 03:19:08;;;;;;;22.92;7.68;;;;;;;2.93;100.00;98870.69;5039293;28;20431;-76
2022/12/04 03:21:38;;;;;;;22.92;8.55;;;;;;;2.96;100.00;98870.66;5056717;28;20123;-76
2022/12/04 03:24:09;;;;;;;23.55;8.27;;;;;;;2.96;100.00;98877.69;5038535;28;20023;-77
2022/12/04 03:26:44;;;;;;;24.88;9.52;;;;;;;2.88;100.00;98856.66;5056356;28;20078;-77
2022/12/04 03:29:13;;;;;;;26.45;8.73;;;;;;;2.77;100.00;98844.44;5056544;28;20460;-77
2022/12/04 03:31:44;;;;;;;27.70;8.75;;;;;;;2.93;100.00;98867.16;5073149;28;20040;-76
2022/12/04 03:34:11;;;;;;;25.77;8.85;;;;;;;3.01;100.00;98862.69;5056547;28;20028;-76
2022/12/04 03:37:09;;;;;;;24.80;9.20;;;;;;;2.93;100.00;98867.16;5056522;28;20028;-77
2022/12/04 03:40:01;;;;;;;20.73;9.40;;;;;;;3.12;100.00;98868.72;5081966;28;20033;-77
2022/12/04 03:43:39;;;;;;;25.17;9.65;;;;;;;2.72;100.00;98800.47;5067577;28;20049;-77
2022/12/04 03:46:10;;;;;;;25.02;8.18;;;;;;;3.08;100.00;98862.59;5069024;28;20067;-77
2022/12/04 03:48:46;;;;;;;21.05;8.40;;;;;;;3.21;100.00;98860.69;5083546;28;20051;-77
2022/12/04 03:51:36;;;;;;;25.48;9.07;;;;;;;3.11;100.00;98856.38;5039244;28;20025;-76
2022/12/04 03:54:06;;;;;;;22.27;9.02;;;;;;;3.03;100.00;98863.53;5049585;28;20548;-76
2022/12/04 03:56:35;;;;;;;23.85;9.60;;;;;;;3.01;100.00;98860.03;5039593;28;20846;-76
2022/12/04 03:59:09;;;;;;;31.83;10.80;;;;;;;3.05;100.00;98853.81;5047933;28;20032;-76
2022/12/04 04:01:38;;;;;;;30.58;11.88;;;;;;;3.09;100.00;98852.88;5036018;28;20472;-76
2022/12/04 04:04:06;;;;;;;32.25;12.65;;;;;;;3.13;100.00;98854.63;5055239;28;20472;-76
2022/12/04 04:06:40;;;;;;;26.85;12.65;;;;;;;3.22;100.00;98862.44;5027488;28;20033;-76
2022/12/04 04:09:12;;;;;;;31.35;12.45;;;;;;;3.22;100.00;98871.25;5054072;28;20032;-77
2022/12/04 04:11:46;;;;;;;27.67;12.77;;;;;;;3.18;100.00;98858.06;5048554;28;20075;-76
2022/12/04 04:24:13;;;;;;;30.60;11.75;;;;;;;3.29;100.00;98862.34;5072981;28;20668;-76
2022/12/04 04:26:18;;;;;;;30.08;13.60;;;;;;;3.33;100.00;98868.47;5056369;28;20553;-77
2022/12/04 04:28:45;;;;;;;35.42;14.27;;;;;;;3.26;100.00;98864.16;5038089;28;20013;-77
2022/12/04 04:31:37;;;;;;;39.72;17.17;;;;;;;3.20;100.00;98859.78;5038534;28;20025;-76
2022/12/04 04:34:24;;;;;;;29.08;13.68;;;;;;;3.15;100.00;98856.34;5038715;28;20020;-77
2022/12/04 04:36:59;;;;;;;25.70;10.93;;;;;;;3.09;100.00;98856.41;5055121;28;20039;-78
2022/12/04 04:39:38;;;;;;;29.60;10.48;;;;;;;3.08;100.00;98856.41;5067851;28;20029;-77
2022/12/04 04:42:31;;;;;;;24.42;8.98;;;;;;;3.09;100.00;98864.34;5071409;28;20101;-77
2022/12/04 04:45:13;;;;;;;21.88;8.70;;;;;;;3.09;100.00;98863.47;5054939;28;20104;-77
2022/12/04 04:47:49;;;;;;;27.92;9.73;;;;;;;3.11;100.00;98862.56;5038379;28;20039;-76
2022/12/04 04:50:15;;;;;;;23.30;8.43;;;;;;;3.01;100.00;98846.84;5038628;28;20415;-78
2022/12/04 04:52:44;;;;;;;18.63;7.20;;;;;;;3.01;100.00;98849.47;5071439;28;20380;-77
2022/12/04 04:55:10;;;;;;;17.75;7.32;;;;;;;3.03;100.00;98867.06;5067849;28;20127;-78
2022/12/04 04:57:36;;;;;;;22.35;7.90;;;;;;;3.08;100.00;98864.34;5054392;28;20562;-78
2022/12/04 05:00:05;;;;;;;18.83;8.02;;;;;;;3.14;100.00;98873.09;5038304;28;20024;-78
2022/12/04 05:02:51;;;;;;;18.58;7.90;;;;;;;3.13;100.00;98863.44;5038436;28;20021;-78
2022/12/04 05:05:17;;;;;;;18.80;8.23;;;;;;;3.17;100.00;98874.81;5039628;28;20472;-78
2022/12/04 05:07:42;;;;;;;25.42;7.93;;;;;;;2.99;100.00;98844.19;5055121;28;20071;-77
2022/12/04 05:10:09;;;;;;;22.50;8.40;;;;;;;3.24;100.00;98865.94;5054353;28;20039;-77
2022/12/04 05:12:35;;;;;;;22.17;9.52;;;;;;;3.25;100.00;98872.97;5037972;28;20038;-76
2022/12/04 05:15:00;;;;;;;19.08;8.73;;;;;;;3.16;100.00;98867.78;5037911;28;20508;-76
2022/12/04 05:17:27;;;;;;;29.08;9.45;;;;;;;3.14;100.00;98865.16;5071346;28;20032;-77
2022/12/04 05:19:52;;;;;;;22.73;10.02;;;;;;;3.15;100.00;98863.38;5053973;28;20037;-79
2022/12/04 05:22:26;;;;;;;24.38;9.30;;;;;;;3.32;100.00;98864.09;5037717;28;20032;-79
2022/12/04 05:24:53;;;;;;;33.92;13.85;;;;;;;3.35;100.00;98871.09;5035578;28;20721;-76
2022/12/04 05:27:19;;;;;;;30.02;13.23;;;;;;;3.43;100.00;98864.81;5037434;28;20033;-78
2022/12/04 05:29:45;;;;;;;34.35;16.67;;;;;;;3.35;100.00;98866.69;5037692;28;20029;-77
2022/12/04 05:32:10;;;;;;;35.63;16.15;;;;;;;3.34;100.00;98870.22;5037624;28;20036;-76
2022/12/04 05:34:36;;;;;;;31.70;15.27;;;;;;;3.45;100.00;98883.28;5037489;28;20032;-77
2022/12/04 05:37:01;;;;;;;30.00;14.15;;;;;;;3.47;100.00;98877.13;5037344;28;20480;-77
2022/12/04 05:39:27;;;;;;;31.85;13.77;;;;;;;3.55;100.00;98884.94;5037386;28;20028;-77
2022/12/04 05:41:53;;;;;;;28.08;13.80;;;;;;;3.59;100.00;98881.38;5036646;28;20028;-76
2022/12/04 05:44:18;;;;;;;27.20;13.98;;;;;;;3.56;100.00;98879.66;5053740;28;20051;-77
2022/12/04 05:46:44;;;;;;;32.25;14.02;;;;;;;3.52;100.00;98872.63;5037095;28;20052;-77
2022/12/04 05:49:09;;;;;;;23.67;10.65;;;;;;;3.56;100.00;98882.28;5071379;28;20491;-74
2022/12/04 05:51:35;;;;;;;25.88;12.40;;;;;;;3.44;100.00;98871.88;5036434;28;20546;-74
2022/12/04 05:54:00;;;;;;;30.70;13.02;;;;;;;3.35;100.00;98857.88;5052979;28;20549;-74
2022/12/04 05:56:27;;;;;;;30.17;13.27;;;;;;;3.38;100.00;98871.94;5053109;28;20036;-74
2022/12/04 05:58:52;;;;;;;31.80;12.68;;;;;;;3.49;100.00;98875.31;5036883;28;20415;-77
2022/12/04 06:01:21;;;;;;;28.70;13.40;;;;;;;3.58;100.00;98891.06;5037797;28;20036;-74
2022/12/04 06:03:46;;;;;;;26.73;11.13;;;;;;;3.56;100.00;98886.72;5052338;28;20033;-75
2022/12/04 06:06:20;;;;;;;23.75;10.43;;;;;;;3.51;100.00;98884.09;5053532;28;20032;-75
2022/12/04 06:08:46;;;;;;;18.20;8.75;;;;;;;3.53;100.00;98884.09;5036570;28;20644;-76
2022/12/04 06:11:14;;;;;;;23.45;11.02;;;;;;;3.54;100.00;98893.75;5053405;28;20024;-82
2022/12/04 06:13:41;;;;;;;21.45;8.75;;;;;;;3.64;100.00;98901.56;5056781;28;20021;-76
2022/12/04 06:16:20;;;;;;;20.85;9.52;;;;;;;3.60;100.00;98885.78;5073114;28;20035;-76
2022/12/04 06:18:51;;;;;;;17.77;8.02;;;;;;;3.62;100.00;98897.22;5061003;28;20487;-75
2022/12/04 06:21:17;;;;;;;22.83;10.48;;;;;;;3.72;100.00;98891.75;5057302;28;20028;-76
2022/12/04 06:23:42;;;;;;;23.52;10.40;;;;;;;3.67;100.00;98885.66;5052087;28;20118;-77
2022/12/04 06:26:08;;;;;;;24.38;12.52;;;;;;;3.77;100.00;98892.59;5051245;28;20124;-76
2022/12/04 06:28:35;;;;;;;27.27;10.57;;;;;;;3.56;100.00;98884.94;5072494;28;20024;-74
2022/12/04 06:31:02;;;;;;;23.13;11.82;;;;;;;3.77;100.00;98883.78;5055364;28;20036;-76
2022/12/04 06:33:28;;;;;;;16.55;8.75;;;;;;;3.60;100.00;98878.69;5052099;28;20414;-77
2022/12/04 06:36:09;;;;;;;20.08;9.23;;;;;;;3.77;100.00;98892.59;5073686;28;20169;-74
2022/12/04 06:38:35;;;;;;;17.40;8.68;;;;;;;3.68;100.00;98882.13;5052348;28;20055;-75
2022/12/04 06:41:05;;;;;;;16.95;8.95;;;;;;;3.84;100.00;98894.25;5070748;28;20024;-75
2022/12/04 06:43:31;;;;;;;20.75;9.85;;;;;;;3.91;100.00;98889.75;5057113;28;20464;-75
2022/12/04 06:46:09;;;;;;;24.50;11.57;;;;;;;4.07;100.00;98891.28;5056978;28;20115;-76
2022/12/04 06:48:35;;;;;;;27.17;12.73;;;;;;;4.09;100.00;98878.88;5052565;28;20031;-75
2022/12/04 06:51:06;;;;;;;44.22;21.20;;;;;;;3.80;100.00;98855.50;5057076;28;20028;-76
2022/12/04 06:53:32;;;;;;;49.25;20.90;;;;;;;3.78;100.00;98854.63;5059609;28;20050;-74
2022/12/04 06:55:59;;;;;;;32.30;13.77;;;;;;;3.72;100.00;98864.44;5057251;28;20123;-76
2022/12/04 06:58:25;;;;;;;20.88;11.80;;;;;;;3.76;100.00;98874.06;5077902;28;20407;-75
2022/12/04 07:00:51;;;;;;;21.25;11.10;;;;;;;3.81;100.00;98867.81;5055380;28;20027;-77
2022/12/04 07:03:17;;;;;;;34.85;14.93;;;;;;;3.78;100.00;98869.66;5055516;28;20503;-78
2022/12/04 07:05:42;;;;;;;29.42;14.90;;;;;;;3.68;100.00;98860.97;5057591;28;20052;-78
2022/12/04 07:08:08;;;;;;;34.38;16.35;;;;;;;3.72;100.00;98861.81;5058110;28;20039;-77
2022/12/04 07:10:35;;;;;;;28.27;12.15;;;;;;;3.64;100.00;98861.91;5062533;28;20024;-77
2022/12/04 07:13:01;;;;;;;25.75;12.05;;;;;;;3.73;100.00;98875.00;5056303;28;20016;-77
2022/12/04 07:15:27;;;;;;;24.23;13.95;;;;;;;3.77;100.00;98884.66;5075379;28;20052;-79
2022/12/04 07:17:52;;;;;;;25.25;12.77;;;;;;;3.78;100.00;98877.59;5059563;28;20384;-82
2022/12/04 07:20:18;;;;;;;32.15;14.80;;;;;;;3.81;100.00;98873.09;5059785;28;20411;-78
2022/12/04 07:22:44;;;;;;;63.58;28.95;;;;;;;4.00;100.00;98883.47;5060113;28;20032;-76
2022/12/04 07:25:09;;;;;;;34.58;18.10;;;;;;;4.00;100.00;98872.88;5061086;28;20023;-78
2022/12/04 07:27:35;;;;;;;48.72;24.15;;;;;;;4.01;100.00;98866.66;5061894;28;20034;-79
2022/12/04 07:30:00;;;;;;;50.88;23.48;;;;;;;4.22;100.00;98866.34;5061171;28;20085;-79
2022/12/04 07:32:26;;;;;;;35.53;16.42;;;;;;;4.29;100.00;98857.41;5055609;28;20031;-80
2022/12/04 07:34:51;;;;;;;46.25;22.77;;;;;;;4.47;100.00;98859.75;5077274;28;20088;-80
2022/12/04 07:37:17;;;;;;;47.60;22.60;;;;;;;4.50;100.00;98862.34;5076503;28;20079;-77
2022/12/04 07:39:42;;;;;;;38.78;15.70;;;;;;;4.55;100.00;98862.28;5059448;28;20046;-75
2022/12/04 07:42:08;;;;;;;30.05;14.15;;;;;;;4.34;100.00;98843.19;5076021;28;20514;-77
2022/12/04 07:44:34;;;;;;;32.75;14.35;;;;;;;4.18;100.00;98841.69;5058190;28;20131;-79
2022/12/04 07:46:59;;;;;;;34.22;15.85;;;;;;;4.10;100.00;98856.81;5071401;28;20540;-77
2022/12/04 07:49:25;;;;;;;36.65;16.83;;;;;;;3.84;100.00;98853.69;5059392;28;20024;-80
2022/12/04 07:51:51;;;;;;;43.10;19.10;;;;;;;3.82;100.00;98864.28;5060431;28;20062;-80
2022/12/04 07:54:16;;;;;;;41.38;20.70;;;;;;;3.62;100.00;98845.19;5060322;28;20115;-80
2022/12/04 07:56:42;;;;;;;46.55;21.13;;;;;;;3.67;100.00;98864.50;5075812;28;20028;-81
2022/12/04 07:59:07;;;;;;;37.45;17.50;;;;;;;3.51;100.00;98862.94;5071686;28;20402;-77
2022/12/04 08:01:33;;;;;;;45.63;18.15;;;;;;;3.51;100.00;98862.06;5095484;28;20415;-76
2022/12/04 08:03:59;;;;;;;27.98;13.75;;;;;;;3.56;100.00;98877.00;5063889;28;20471;-76
2022/12/04 08:06:27;;;;;;;30.77;15.13;;;;;;;3.58;100.00;98882.25;5058702;28;20505;-77
2022/12/04 08:08:52;;;;;;;29.55;14.05;;;;;;;3.78;100.00;98886.38;5075232;28;20085;-77
2022/12/04 08:11:21;;;;;;;36.47;14.98;;;;;;;3.90;100.00;98890.66;5075385;28;20805;-77
2022/12/04 08:13:47;;;;;;;29.80;11.77;;;;;;;3.84;100.00;98877.50;5076107;28;20032;-80
2022/12/04 08:16:14;;;;;;;27.83;11.93;;;;;;;3.97;100.00;98884.34;5075455;28;20112;-77
2022/12/04 08:18:40;;;;;;;33.72;15.88;;;;;;;3.95;100.00;98880.00;5094371;28;20031;-76
2022/12/04 08:21:11;;;;;;;30.35;13.35;;;;;;;4.00;100.00;98875.53;5067180;28;20031;-79
2022/12/04 08:23:38;;;;;;;22.02;10.93;;;;;;;3.97;100.00;98875.56;5055813;28;20403;-76
2022/12/04 08:26:04;;;;;;;22.60;10.55;;;;;;;4.14;100.00;98881.47;5076738;28;20561;-82
2022/12/04 08:28:30;;;;;;;24.05;10.70;;;;;;;4.14;100.00;98868.25;5072746;28;20027;-79
2022/12/04 08:31:04;;;;;;;19.27;8.80;;;;;;;3.95;100.00;98857.03;5064919;28;20024;-87
2022/12/04 08:33:30;;;;;;;16.23;8.18;;;;;;;3.92;100.00;98842.97;5072307;28;20055;-83
2022/12/04 08:35:56;;;;;;;20.33;9.75;;;;;;;4.14;100.00;98849.72;5072542;28;20111;-82
2022/12/04 08:38:22;;;;;;;716.38;63.13;;;;;;;4.28;100.00;98848.59;5066725;28;20162;-81
2022/12/04 08:40:47;;;;;;;18.80;8.05;;;;;;;4.31;100.00;98832.63;5058330;28;20085;-79
2022/12/04 08:43:13;;;;;;;34.20;16.25;;;;;;;4.47;100.00;98838.56;5073586;28;20029;-80
2022/12/04 08:45:38;;;;;;;21.65;9.27;;;;;;;4.48;100.00;98824.44;5056039;28;20024;-77
2022/12/04 08:48:04;;;;;;;19.55;9.13;;;;;;;4.52;100.00;98819.94;5050643;28;20029;-82
2022/12/04 08:50:30;;;;;;;18.55;8.45;;;;;;;4.64;100.00;98814.44;5078602;28;20472;-78
2022/12/04 08:52:55;;;;;;;20.42;8.93;;;;;;;4.61;100.00;98810.06;5061972;28;20110;-81
2022/12/04 08:55:21;;;;;;;20.65;10.20;;;;;;;4.78;100.00;98797.38;5074229;28;20444;-82
2022/12/04 08:57:46;;;;;;;25.23;12.25;;;;;;;4.73;100.00;98787.75;5068883;28;20020;-82
2022/12/04 09:00:14;;;;;;;39.55;18.67;;;;;;;4.62;100.00;98785.28;5091942;28;20415;-82
2022/12/04 09:02:47;;;;;;;22.40;11.43;;;;;;;4.45;100.00;98771.50;5060678;28;20039;-80
2022/12/04 09:05:12;;;;;;;31.48;15.05;;;;;;;4.78;100.00;98780.59;5061011;28;20099;-81
2022/12/04 09:07:38;;;;;;;29.38;14.27;;;;;;;4.92;100.00;98768.81;5061724;28;20066;-80
2022/12/04 09:10:04;;;;;;;31.00;12.10;;;;;;;4.88;100.00;98756.53;5077465;28;20498;-81
2022/12/04 09:12:30;;;;;;;26.33;12.68;;;;;;;5.00;100.00;98765.13;5056653;28;20090;-81
2022/12/04 09:14:55;;;;;;;29.42;13.43;;;;;;;5.27;100.00;98761.91;5058189;28;20039;-84
2022/12/04 09:17:21;;;;;;;25.02;10.63;;;;;;;4.98;100.00;98741.31;5060718;28;20035;-80
2022/12/04 09:19:46;;;;;;;22.10;10.10;;;;;;;4.68;100.00;98713.63;5059623;28;20056;-80
2022/12/04 09:22:12;;;;;;;18.67;8.93;;;;;;;4.71;100.00;98725.94;5068143;28;20228;-81
2022/12/04 09:24:39;;;;;;;22.05;9.63;;;;;;;4.68;100.00;98728.66;5078503;28;20051;-75
2022/12/04 09:27:05;;;;;;;18.33;9.23;;;;;;;4.79;100.00;98743.47;5065150;28;20029;-78
2022/12/04 09:29:31;;;;;;;30.75;13.65;;;;;;;5.20;100.00;98747.91;5057502;28;20427;-77
2022/12/04 09:31:57;;;;;;;19.23;9.07;;;;;;;5.34;100.00;98727.25;5053289;28;20024;-79
2022/12/04 09:34:22;;;;;;;20.65;9.52;;;;;;;5.61;100.00;98728.41;5071639;28;20127;-75
2022/12/04 09:36:49;;;;;;;21.90;10.60;;;;;;;5.83;100.00;98723.47;5075182;28;20036;-81
2022/12/04 09:39:16;;;;;;;23.02;11.30;;;;;;;5.91;100.00;98703.81;5045208;28;20025;-76
2022/12/04 09:42:02;;;;;;;24.75;12.27;;;;;;;6.02;100.00;98692.94;5075857;28;20708;-77
2022/12/04 09:44:32;;;;;;;22.25;11.18;;;;;;;6.19;100.00;98674.75;5072753;28;20090;-76
2022/12/04 09:47:02;;;;;;;17.75;8.25;;;;;;;5.87;100.00;98662.34;5054978;28;20039;-81
2022/12/04 09:49:57;;;;;;;18.85;8.52;;;;;;;5.44;100.00;98645.69;5073217;28;20339;-74
2022/12/04 09:52:29;;;;;;;20.67;9.40;;;;;;;5.03;100.00;98637.81;5089146;28;20070;-74
2022/12/04 09:54:55;;;;;;;18.13;8.23;;;;;;;5.16;100.00;98642.81;5082300;28;20020;-73
2022/12/04 09:57:32;;;;;;;21.02;10.50;;;;;;;5.08;100.00;98650.03;5084612;28;20034;-88
2022/12/04 09:59:58;;;;;;;34.90;16.70;;;;;;;5.40;100.00;98659.94;5054641;28;20016;-80
2022/12/04 10:02:37;;;;;;;28.05;12.90;;;;;;;5.66;100.00;98651.34;5066806;28;20036;-73
2022/12/04 10:05:03;;;;;;;17.70;8.48;;;;;;;5.62;100.00;98629.31;5055239;28;20019;-72
2022/12/04 10:07:35;;;;;;;20.25;9.32;;;;;;;5.71;100.00;98628.22;5057128;28;20051;-73
2022/12/04 10:10:21;;;;;;;27.47;14.23;;;;;;;5.85;100.00;98637.59;5094405;28;20388;-85
2022/12/04 10:12:57;;;;;;;39.15;19.50;;;;;;;6.05;100.00;98637.09;5072986;28;20306;-86
2022/12/04 10:15:43;;;;;;;44.72;20.83;;;;;;;6.26;100.00;98622.34;5070629;28;20052;-87
2022/12/04 10:18:27;;;;;;;27.92;13.98;;;;;;;6.18;100.00;98598.66;5060989;28;20108;-84
2022/12/04 10:21:25;;;;;;;32.00;14.88;;;;;;;6.40;100.00;98605.09;5075747;28;20059;-82
2022/12/04 10:24:20;;;;;;;35.92;17.20;;;;;;;6.01;100.00;98571.66;5030996;28;20503;-71
2022/12/04 10:26:47;;;;;;;35.97;16.60;;;;;;;5.85;100.00;98555.28;5064647;28;20036;-72
2022/12/04 10:29:15;;;;;;;32.90;16.55;;;;;;;5.77;100.00;98567.88;5055688;28;20050;-69
2022/12/04 10:31:44;;;;;;;51.28;24.45;;;;;;;5.60;100.00;98564.75;5089071;28;20028;-70
2022/12/04 10:34:17;;;;;;;67.60;34.15;;;;;;;5.63;100.00;98571.81;5070430;28;20027;-71
2022/12/04 10:36:50;;;;;;;30.48;15.30;;;;;;;5.73;100.00;98570.63;5067752;28;20024;-68
2022/12/04 10:39:23;;;;;;;55.75;26.38;;;;;;;5.69;100.00;98569.00;5090931;28;20472;-70
2022/12/04 10:42:10;;;;;;;33.17;15.93;;;;;;;5.58;100.00;98553.34;5064460;28;20094;-70
2022/12/04 10:44:39;;;;;;;39.33;17.67;;;;;;;5.52;100.00;98547.31;5090701;28;20028;-70
2022/12/04 10:47:05;;;;;;;38.53;17.77;;;;;;;5.51;100.00;98548.25;5054586;28;20426;-70
2022/12/04 10:49:33;;;;;;;39.97;18.10;;;;;;;5.55;100.00;98557.84;5066804;28;20384;-70
2022/12/04 10:51:58;;;;;;;38.58;17.83;;;;;;;5.72;100.00;98566.25;5069760;28;20025;-69
2022/12/04 10:54:53;;;;;;;32.45;14.95;;;;;;;5.68;100.00;98557.50;5066995;28;20522;-71
2022/12/04 10:57:18;;;;;;;28.45;14.90;;;;;;;5.46;100.00;98535.97;5078820;28;20048;-71
2022/12/04 10:59:54;;;;;;;27.90;12.93;;;;;;;5.69;100.00;98539.78;5054419;28;20036;-69
2022/12/04 11:02:24;;;;;;;30.48;14.10;;;;;;;5.39;100.00;98525.53;5065013;28;20032;-71
2022/12/04 11:05:04;;;;;;;28.13;12.90;;;;;;;5.60;100.00;98540.03;5055388;28;20032;-70
2022/12/04 11:07:34;;;;;;;29.40;14.90;;;;;;;5.44;100.00;98521.00;5056179;28;20530;-70
2022/12/04 11:10:23;;;;;;;29.98;14.80;;;;;;;5.55;100.00;98528.66;5056219;28;20538;-70
2022/12/04 11:12:56;;;;;;;29.17;13.90;;;;;;;5.63;100.00;98516.06;5063567;28;20046;-71
2022/12/04 11:15:22;;;;;;;21.45;11.10;;;;;;;5.69;100.00;98514.09;5072733;28;20495;-70
2022/12/04 11:17:48;;;;;;;23.30;11.60;;;;;;;5.89;100.00;98527.75;5065647;28;20036;-70
2022/12/04 11:20:22;;;;;;;30.95;14.07;;;;;;;6.15;100.00;98523.50;5072881;28;20032;-70
2022/12/04 11:22:53;;;;;;;26.00;13.18;;;;;;;6.23;100.00;98517.03;5070938;28;20036;-71
2022/12/04 11:25:24;;;;;;;27.67;14.13;;;;;;;6.22;100.00;98517.06;5055398;28;20032;-72
2022/12/04 11:27:53;;;;;;;32.45;15.48;;;;;;;6.15;100.00;98508.44;5054242;28;20031;-70
2022/12/04 11:30:28;;;;;;;24.88;12.15;;;;;;;6.08;100.00;98506.00;5055326;28;20434;-71
2022/12/04 11:32:54;;;;;;;26.92;11.73;;;;;;;6.31;100.00;98507.03;5046916;28;20060;-71
2022/12/04 11:35:23;;;;;;;24.85;11.98;;;;;;;6.17;100.00;98513.69;5072977;28;20106;-70
2022/12/04 11:38:15;;;;;;;25.45;12.50;;;;;;;6.28;100.00;98509.78;5072832;28;20032;-69
2022/12/04 11:40:53;;;;;;;25.00;11.40;;;;;;;6.23;100.00;98500.22;5059735;28;20059;-71
2022/12/04 11:43:19;;;;;;;27.33;12.27;;;;;;;6.08;100.00;98500.69;5076464;28;20032;-71
2022/12/04 11:45:56;;;;;;;26.67;11.38;;;;;;;6.16;100.00;98503.97;5055544;28;20051;-71
2022/12/04 11:48:22;;;;;;;23.45;12.88;;;;;;;6.17;100.00;98490.66;5058857;28;20028;-72
2022/12/04 11:51:15;;;;;;;26.52;12.93;;;;;;;6.13;100.00;98482.81;5059261;28;20467;-70